Hauptseite
METAR-TAF:

METAR-TAF

Flughäfen :

Payerne, Schweiz

Militärflugplatz Payerne

Breite: 46-49N, Länge: 006-57E, Höhe: 490 m

Beobachtung

Neuester Wetterbericht von vor 26 Minuten, um 22:50 UTC
Wind 3 kt aus Süd/Südwest, variierte zwischen Süd und West/Südwest
Temperatur 13°C
Luftfeuchtigkeit 77%
Luftdruck 1018 hPa
Sichtweite 10 km oder mehr

METAR: LSMP 212250Z AUTO 20003KT 180V240 9999NDV NCD 13/09 Q1018 RMK

Zeit: 01:16 (23:16 UTC)


TAF: fehlend

Wetterbeobachtungen und Prognosen von mehr als 4000 Flughäfen (METAR und TAF Bericht).

Die verfügbaren Stationen werden durch gelbe und rote Markierungen auf der Karte dargestellt.

Führen Sie die Maus auf sie, um den Namen der Station zu sehen.

Darauf klicken, um die Beobachtung von Wetterbeobachtungen und Prognosen zu sehen.

Um die Karte zu ändern : klicken Sie auf den grünen Tasten mit einem schwarzen Kreuz Zum Vergrößern, auf den grünen Button mit einem Gedankenstrich zu verkleinern, oder auf die grünen Pfeile für benachbarte Karten.


METAR-TAF: